aviador You're here:

KOZR Decoded Metar

OZARK/CAIRNS AAF in AL, USA
Report Time2018-05-23 16:20:00
UTC Time2018-05-23 16:40:38
Flight Rules vfr VFR
Wind210° at 05 kt
W.Decomp.*RWY 24: 4.5 kt HW 2.3 kt LCW
RWY 18: 4.2 kt HW 2.7 kt RCW
W.Rank210° ranks 13
Current wind is below 210° avg. (5.8)
Visibility9999 m
Phenomena:N/A
Clouds:Scattered 026 Hf
Broken 140 Hf
Expected CloudBase > 3,200 ft AGL from Temp-Dew spread
Ceiling14,000 ft
Temp30°C (ISA +16)
Dew Point22°C (62% RH)
Heat Index33.2°C
QNH1018 hPa
Density Alt2,274 ft
Elevation305 ft
Report Wrong Elevation
Raw Report
KOZR 231620Z AUTO 21005KT 10SM SCT026 BKN140 30/22 A3007 RMK AO2
SLP182=

Extra information for KOZR:More info

Metar Taf Metar & Taf Last 4 Metars F.Rules Stats Wind Profile Meteogram Temp Stats Airport Information Weather charts Add Link Nearby VenuesMetar ALERT Operation Metar Decoded Social comments

AIRNAV info for KOZR